sensor_id;sensor_type;location;lat;lon;timestamp;P1;durP1;ratioP1;P2;durP2;ratioP2
44564;SDS011;30275;51.822;-0.326;2023-05-15T00:00:27;3.22;;;2.28;;
44564;SDS011;30275;51.822;-0.326;2023-05-15T00:02:52;3.20;;;2.30;;
44564;SDS011;30275;51.822;-0.326;2023-05-15T00:05:19;3.50;;;2.30;;
44564;SDS011;30275;51.822;-0.326;2023-05-15T00:07:45;4.07;;;2.40;;
44564;SDS011;30275;51.822;-0.326;2023-05-15T00:10:11;3.33;;;2.50;;
44564;SDS011;30275;51.822;-0.326;2023-05-15T00:12:36;3.42;;;2.38;;
44564;SDS011;30275;51.822;-0.326;2023-05-15T00:15:02;2.40;;;2.20;;
44564;SDS011;30275;51.822;-0.326;2023-05-15T00:17:28;3.17;;;2.40;;
44564;SDS011;30275;51.822;-0.326;2023-05-15T00:19:53;3.60;;;2.00;;
44564;SDS011;30275;51.822;-0.326;2023-05-15T00:22:21;4.85;;;2.28;;
44564;SDS011;30275;51.822;-0.326;2023-05-15T00:24:48;3.05;;;2.00;;
44564;SDS011;30275;51.822;-0.326;2023-05-15T00:27:13;3.30;;;1.85;;
44564;SDS011;30275;51.822;-0.326;2023-05-15T00:29:39;4.95;;;2.30;;
44564;SDS011;30275;51.822;-0.326;2023-05-15T00:32:05;2.65;;;2.03;;
44564;SDS011;30275;51.822;-0.326;2023-05-15T00:34:30;2.72;;;1.88;;
44564;SDS011;30275;51.822;-0.326;2023-05-15T00:36:56;4.07;;;2.10;;
44564;SDS011;30275;51.822;-0.326;2023-05-15T00:39:22;3.35;;;2.75;;
44564;SDS011;30275;51.822;-0.326;2023-05-15T00:41:48;3.13;;;2.50;;
44564;SDS011;30275;51.822;-0.326;2023-05-15T00:44:15;4.10;;;2.22;;
44564;SDS011;30275;51.822;-0.326;2023-05-15T00:46:44;3.33;;;2.50;;
44564;SDS011;30275;51.822;-0.326;2023-05-15T00:49:10;4.55;;;3.08;;
44564;SDS011;30275;51.822;-0.326;2023-05-15T00:51:38;3.25;;;2.22;;
44564;SDS011;30275;51.822;-0.326;2023-05-15T00:54:06;3.65;;;2.60;;
44564;SDS011;30275;51.822;-0.326;2023-05-15T00:56:32;3.60;;;2.90;;
44564;SDS011;30275;51.822;-0.326;2023-05-15T00:58:58;4.15;;;2.78;;
44564;SDS011;30275;51.822;-0.326;2023-05-15T01:01:27;4.72;;;3.83;;
44564;SDS011;30275;51.822;-0.326;2023-05-15T01:03:57;6.50;;;3.70;;
44564;SDS011;30275;51.822;-0.326;2023-05-15T01:06:23;6.55;;;3.40;;
44564;SDS011;30275;51.822;-0.326;2023-05-15T01:08:49;4.45;;;3.97;;
44564;SDS011;30275;51.822;-0.326;2023-05-15T01:11:17;7.00;;;4.70;;
44564;SDS011;30275;51.822;-0.326;2023-05-15T01:13:43;6.90;;;4.57;;
44564;SDS011;30275;51.822;-0.326;2023-05-15T01:16:09;6.57;;;4.45;;
44564;SDS011;30275;51.822;-0.326;2023-05-15T01:18:35;6.25;;;4.78;;
44564;SDS011;30275;51.822;-0.326;2023-05-15T01:32:03;9.25;;;5.65;;
44564;SDS011;30275;51.822;-0.326;2023-05-15T01:34:34;8.98;;;6.78;;
44564;SDS011;30275;51.822;-0.326;2023-05-15T01:37:16;9.15;;;6.05;;
44564;SDS011;30275;51.822;-0.326;2023-05-15T01:39:46;8.40;;;6.45;;
44564;SDS011;30275;51.822;-0.326;2023-05-15T01:42:14;10.63;;;6.35;;
44564;SDS011;30275;51.822;-0.326;2023-05-15T01:44:43;9.25;;;6.63;;
44564;SDS011;30275;51.822;-0.326;2023-05-15T01:47:18;7.80;;;6.32;;
44564;SDS011;30275;51.822;-0.326;2023-05-15T01:49:48;9.27;;;6.60;;
44564;SDS011;30275;51.822;-0.326;2023-05-15T01:52:18;8.48;;;7.07;;
44564;SDS011;30275;51.822;-0.326;2023-05-15T01:54:49;8.23;;;6.72;;
44564;SDS011;30275;51.822;-0.326;2023-05-15T01:57:15;8.93;;;7.30;;
44564;SDS011;30275;51.822;-0.326;2023-05-15T01:59:43;7.95;;;6.28;;
44564;SDS011;30275;51.822;-0.326;2023-05-15T02:02:09;8.57;;;6.93;;
44564;SDS011;30275;51.822;-0.326;2023-05-15T02:04:36;8.70;;;6.72;;
44564;SDS011;30275;51.822;-0.326;2023-05-15T02:07:02;9.63;;;7.22;;
44564;SDS011;30275;51.822;-0.326;2023-05-15T02:09:28;7.13;;;6.38;;
44564;SDS011;30275;51.822;-0.326;2023-05-15T02:11:56;7.38;;;6.25;;
44564;SDS011;30275;51.822;-0.326;2023-05-15T02:14:23;8.20;;;6.70;;
44564;SDS011;30275;51.822;-0.326;2023-05-15T02:16:50;8.57;;;7.18;;
44564;SDS011;30275;51.822;-0.326;2023-05-15T02:19:16;9.02;;;7.00;;
44564;SDS011;30275;51.822;-0.326;2023-05-15T02:21:42;8.63;;;7.15;;
44564;SDS011;30275;51.822;-0.326;2023-05-15T02:24:07;7.45;;;6.45;;
44564;SDS011;30275;51.822;-0.326;2023-05-15T02:29:18;8.43;;;6.45;;
44564;SDS011;30275;51.822;-0.326;2023-05-15T02:34:41;8.00;;;6.20;;
44564;SDS011;30275;51.822;-0.326;2023-05-15T02:37:30;8.75;;;6.28;;
44564;SDS011;30275;51.822;-0.326;2023-05-15T02:39:56;8.63;;;7.05;;
44564;SDS011;30275;51.822;-0.326;2023-05-15T02:42:28;8.45;;;6.78;;
44564;SDS011;30275;51.822;-0.326;2023-05-15T02:44:55;9.73;;;6.30;;
44564;SDS011;30275;51.822;-0.326;2023-05-15T02:47:22;9.90;;;7.32;;
44564;SDS011;30275;51.822;-0.326;2023-05-15T02:49:49;9.85;;;7.18;;
44564;SDS011;30275;51.822;-0.326;2023-05-15T02:52:15;8.77;;;7.25;;
44564;SDS011;30275;51.822;-0.326;2023-05-15T02:54:41;7.68;;;6.88;;
44564;SDS011;30275;51.822;-0.326;2023-05-15T02:57:07;8.95;;;6.80;;
44564;SDS011;30275;51.822;-0.326;2023-05-15T02:59:33;10.35;;;7.43;;
44564;SDS011;30275;51.822;-0.326;2023-05-15T03:01:59;9.07;;;7.93;;
44564;SDS011;30275;51.822;-0.326;2023-05-15T03:04:24;9.38;;;7.20;;
44564;SDS011;30275;51.822;-0.326;2023-05-15T03:06:50;7.88;;;6.75;;
44564;SDS011;30275;51.822;-0.326;2023-05-15T03:09:16;9.20;;;6.75;;
44564;SDS011;30275;51.822;-0.326;2023-05-15T03:11:41;8.75;;;6.28;;
44564;SDS011;30275;51.822;-0.326;2023-05-15T03:14:07;9.00;;;6.32;;
44564;SDS011;30275;51.822;-0.326;2023-05-15T03:16:33;8.50;;;5.18;;
44564;SDS011;30275;51.822;-0.326;2023-05-15T03:19:00;6.60;;;4.70;;
44564;SDS011;30275;51.822;-0.326;2023-05-15T03:21:26;7.63;;;4.50;;
44564;SDS011;30275;51.822;-0.326;2023-05-15T03:23:52;5.95;;;3.90;;
44564;SDS011;30275;51.822;-0.326;2023-05-15T03:26:17;7.68;;;3.70;;
44564;SDS011;30275;51.822;-0.326;2023-05-15T03:28:43;7.03;;;3.78;;
44564;SDS011;30275;51.822;-0.326;2023-05-15T03:31:08;5.35;;;2.95;;
44564;SDS011;30275;51.822;-0.326;2023-05-15T03:33:34;5.47;;;3.40;;
44564;SDS011;30275;51.822;-0.326;2023-05-15T03:36:00;7.20;;;3.30;;
44564;SDS011;30275;51.822;-0.326;2023-05-15T03:38:25;6.93;;;3.70;;
44564;SDS011;30275;51.822;-0.326;2023-05-15T03:40:51;8.18;;;3.50;;
44564;SDS011;30275;51.822;-0.326;2023-05-15T03:43:16;5.45;;;2.83;;
44564;SDS011;30275;51.822;-0.326;2023-05-15T03:45:42;8.65;;;3.30;;
44564;SDS011;30275;51.822;-0.326;2023-05-15T03:48:08;9.05;;;2.97;;
44564;SDS011;30275;51.822;-0.326;2023-05-15T03:50:33;10.10;;;3.35;;
44564;SDS011;30275;51.822;-0.326;2023-05-15T03:52:59;8.63;;;3.42;;
44564;SDS011;30275;51.822;-0.326;2023-05-15T03:55:24;8.75;;;3.20;;
44564;SDS011;30275;51.822;-0.326;2023-05-15T03:57:50;7.78;;;2.80;;
44564;SDS011;30275;51.822;-0.326;2023-05-15T04:00:16;7.38;;;2.75;;
44564;SDS011;30275;51.822;-0.326;2023-05-15T04:02:42;9.88;;;3.15;;
44564;SDS011;30275;51.822;-0.326;2023-05-15T04:05:08;10.15;;;2.90;;
44564;SDS011;30275;51.822;-0.326;2023-05-15T04:07:34;6.53;;;3.33;;
44564;SDS011;30275;51.822;-0.326;2023-05-15T04:10:00;10.10;;;3.60;;
44564;SDS011;30275;51.822;-0.326;2023-05-15T04:12:27;7.15;;;3.55;;
44564;SDS011;30275;51.822;-0.326;2023-05-15T04:14:54;7.75;;;3.35;;
44564;SDS011;30275;51.822;-0.326;2023-05-15T04:17:23;10.02;;;3.20;;
44564;SDS011;30275;51.822;-0.326;2023-05-15T04:19:49;8.50;;;2.90;;
44564;SDS011;30275;51.822;-0.326;2023-05-15T04:22:15;6.40;;;2.85;;
44564;SDS011;30275;51.822;-0.326;2023-05-15T04:24:40;6.68;;;2.90;;
44564;SDS011;30275;51.822;-0.326;2023-05-15T04:27:06;9.65;;;3.53;;
44564;SDS011;30275;51.822;-0.326;2023-05-15T04:29:31;9.45;;;3.08;;
44564;SDS011;30275;51.822;-0.326;2023-05-15T04:31:57;9.90;;;2.92;;
44564;SDS011;30275;51.822;-0.326;2023-05-15T04:34:23;9.02;;;2.92;;
44564;SDS011;30275;51.822;-0.326;2023-05-15T04:36:48;6.20;;;2.80;;
44564;SDS011;30275;51.822;-0.326;2023-05-15T04:39:14;12.68;;;4.10;;
44564;SDS011;30275;51.822;-0.326;2023-05-15T04:41:40;11.35;;;2.83;;
44564;SDS011;30275;51.822;-0.326;2023-05-15T04:44:05;6.70;;;2.78;;
44564;SDS011;30275;51.822;-0.326;2023-05-15T04:46:31;9.73;;;2.67;;
44564;SDS011;30275;51.822;-0.326;2023-05-15T04:48:58;7.13;;;2.72;;
44564;SDS011;30275;51.822;-0.326;2023-05-15T04:51:24;9.70;;;3.30;;
44564;SDS011;30275;51.822;-0.326;2023-05-15T04:53:50;10.02;;;3.15;;
44564;SDS011;30275;51.822;-0.326;2023-05-15T04:56:15;8.52;;;3.03;;
44564;SDS011;30275;51.822;-0.326;2023-05-15T04:58:41;12.75;;;3.25;;
44564;SDS011;30275;51.822;-0.326;2023-05-15T05:01:06;9.32;;;3.03;;
44564;SDS011;30275;51.822;-0.326;2023-05-15T05:03:32;8.60;;;2.72;;
44564;SDS011;30275;51.822;-0.326;2023-05-15T05:05:57;8.18;;;2.92;;
44564;SDS011;30275;51.822;-0.326;2023-05-15T05:08:23;8.88;;;2.97;;
44564;SDS011;30275;51.822;-0.326;2023-05-15T05:10:53;10.07;;;3.50;;
44564;SDS011;30275;51.822;-0.326;2023-05-15T05:13:20;13.50;;;3.70;;
44564;SDS011;30275;51.822;-0.326;2023-05-15T05:15:45;7.70;;;2.95;;
44564;SDS011;30275;51.822;-0.326;2023-05-15T05:18:11;9.20;;;3.28;;
44564;SDS011;30275;51.822;-0.326;2023-05-15T05:20:36;10.75;;;3.28;;
44564;SDS011;30275;51.822;-0.326;2023-05-15T05:23:02;8.63;;;3.03;;
44564;SDS011;30275;51.822;-0.326;2023-05-15T05:25:27;9.57;;;3.08;;
44564;SDS011;30275;51.822;-0.326;2023-05-15T05:27:53;5.65;;;2.80;;
44564;SDS011;30275;51.822;-0.326;2023-05-15T05:30:19;9.05;;;3.10;;
44564;SDS011;30275;51.822;-0.326;2023-05-15T05:32:46;11.02;;;2.95;;
44564;SDS011;30275;51.822;-0.326;2023-05-15T05:35:12;7.93;;;3.03;;
44564;SDS011;30275;51.822;-0.326;2023-05-15T05:37:38;6.60;;;2.58;;
44564;SDS011;30275;51.822;-0.326;2023-05-15T05:40:03;5.90;;;2.20;;
44564;SDS011;30275;51.822;-0.326;2023-05-15T05:42:30;6.38;;;2.65;;
44564;SDS011;30275;51.822;-0.326;2023-05-15T05:44:56;7.35;;;2.13;;
44564;SDS011;30275;51.822;-0.326;2023-05-15T05:47:22;6.53;;;2.53;;
44564;SDS011;30275;51.822;-0.326;2023-05-15T05:49:47;7.93;;;2.97;;
44564;SDS011;30275;51.822;-0.326;2023-05-15T05:52:13;7.13;;;2.00;;
44564;SDS011;30275;51.822;-0.326;2023-05-15T05:54:40;7.03;;;2.35;;
44564;SDS011;30275;51.822;-0.326;2023-05-15T05:57:05;10.90;;;2.60;;
44564;SDS011;30275;51.822;-0.326;2023-05-15T05:59:31;6.25;;;1.92;;
44564;SDS011;30275;51.822;-0.326;2023-05-15T06:01:57;6.97;;;2.45;;
44564;SDS011;30275;51.822;-0.326;2023-05-15T06:04:22;8.88;;;2.17;;
44564;SDS011;30275;51.822;-0.326;2023-05-15T06:06:48;6.45;;;2.00;;
44564;SDS011;30275;51.822;-0.326;2023-05-15T06:09:14;6.53;;;2.10;;
44564;SDS011;30275;51.822;-0.326;2023-05-15T06:11:40;8.27;;;2.65;;
44564;SDS011;30275;51.822;-0.326;2023-05-15T06:14:06;3.88;;;1.52;;
44564;SDS011;30275;51.822;-0.326;2023-05-15T06:16:32;5.40;;;2.30;;
44564;SDS011;30275;51.822;-0.326;2023-05-15T06:18:57;4.35;;;2.17;;
44564;SDS011;30275;51.822;-0.326;2023-05-15T06:21:23;6.43;;;1.92;;
44564;SDS011;30275;51.822;-0.326;2023-05-15T06:23:49;9.10;;;1.92;;
44564;SDS011;30275;51.822;-0.326;2023-05-15T06:26:14;5.82;;;2.22;;
44564;SDS011;30275;51.822;-0.326;2023-05-15T06:28:40;4.47;;;1.90;;
44564;SDS011;30275;51.822;-0.326;2023-05-15T06:31:05;6.13;;;2.58;;
44564;SDS011;30275;51.822;-0.326;2023-05-15T06:33:31;5.85;;;2.38;;
44564;SDS011;30275;51.822;-0.326;2023-05-15T06:35:57;6.97;;;2.00;;
44564;SDS011;30275;51.822;-0.326;2023-05-15T06:38:22;5.97;;;1.80;;
44564;SDS011;30275;51.822;-0.326;2023-05-15T06:40:48;6.43;;;1.92;;
44564;SDS011;30275;51.822;-0.326;2023-05-15T06:43:13;7.43;;;2.15;;
44564;SDS011;30275;51.822;-0.326;2023-05-15T06:45:39;3.97;;;1.77;;
44564;SDS011;30275;51.822;-0.326;2023-05-15T06:48:04;6.28;;;2.75;;
44564;SDS011;30275;51.822;-0.326;2023-05-15T06:50:30;5.40;;;1.75;;
44564;SDS011;30275;51.822;-0.326;2023-05-15T06:52:56;3.67;;;2.20;;
44564;SDS011;30275;51.822;-0.326;2023-05-15T06:55:22;4.15;;;1.40;;
44564;SDS011;30275;51.822;-0.326;2023-05-15T06:57:47;6.55;;;1.55;;
44564;SDS011;30275;51.822;-0.326;2023-05-15T07:00:13;4.63;;;1.50;;
44564;SDS011;30275;51.822;-0.326;2023-05-15T07:02:39;5.15;;;1.65;;
44564;SDS011;30275;51.822;-0.326;2023-05-15T07:05:05;4.80;;;1.52;;
44564;SDS011;30275;51.822;-0.326;2023-05-15T07:07:31;4.28;;;1.60;;
44564;SDS011;30275;51.822;-0.326;2023-05-15T07:09:56;4.68;;;1.95;;
44564;SDS011;30275;51.822;-0.326;2023-05-15T07:12:22;5.53;;;1.92;;
44564;SDS011;30275;51.822;-0.326;2023-05-15T07:14:47;6.78;;;1.83;;
44564;SDS011;30275;51.822;-0.326;2023-05-15T07:17:13;5.13;;;1.67;;
44564;SDS011;30275;51.822;-0.326;2023-05-15T07:19:38;4.53;;;2.42;;
44564;SDS011;30275;51.822;-0.326;2023-05-15T07:22:04;6.32;;;1.67;;
44564;SDS011;30275;51.822;-0.326;2023-05-15T07:24:30;11.10;;;2.00;;
44564;SDS011;30275;51.822;-0.326;2023-05-15T07:26:55;6.65;;;1.65;;
44564;SDS011;30275;51.822;-0.326;2023-05-15T07:29:21;6.93;;;1.92;;
44564;SDS011;30275;51.822;-0.326;2023-05-15T07:31:47;5.88;;;2.42;;
44564;SDS011;30275;51.822;-0.326;2023-05-15T07:34:12;6.38;;;2.00;;
44564;SDS011;30275;51.822;-0.326;2023-05-15T07:36:38;6.28;;;1.70;;
44564;SDS011;30275;51.822;-0.326;2023-05-15T07:39:03;7.07;;;2.30;;
44564;SDS011;30275;51.822;-0.326;2023-05-15T07:41:29;8.05;;;1.67;;
44564;SDS011;30275;51.822;-0.326;2023-05-15T07:43:57;6.85;;;1.52;;
44564;SDS011;30275;51.822;-0.326;2023-05-15T07:46:22;4.28;;;2.00;;
44564;SDS011;30275;51.822;-0.326;2023-05-15T07:48:48;6.15;;;1.98;;
44564;SDS011;30275;51.822;-0.326;2023-05-15T07:51:14;4.43;;;1.77;;
44564;SDS011;30275;51.822;-0.326;2023-05-15T07:53:39;3.55;;;1.25;;
44564;SDS011;30275;51.822;-0.326;2023-05-15T07:56:05;6.38;;;1.80;;
44564;SDS011;30275;51.822;-0.326;2023-05-15T07:58:31;7.32;;;1.70;;
44564;SDS011;30275;51.822;-0.326;2023-05-15T08:00:59;5.60;;;1.88;;
44564;SDS011;30275;51.822;-0.326;2023-05-15T08:03:24;3.00;;;1.40;;
44564;SDS011;30275;51.822;-0.326;2023-05-15T08:05:50;6.03;;;1.92;;
44564;SDS011;30275;51.822;-0.326;2023-05-15T08:08:16;6.95;;;1.88;;
44564;SDS011;30275;51.822;-0.326;2023-05-15T08:10:41;4.70;;;1.30;;
44564;SDS011;30275;51.822;-0.326;2023-05-15T08:13:07;5.70;;;1.70;;
44564;SDS011;30275;51.822;-0.326;2023-05-15T08:15:32;5.78;;;1.40;;
44564;SDS011;30275;51.822;-0.326;2023-05-15T08:17:58;4.63;;;1.52;;
44564;SDS011;30275;51.822;-0.326;2023-05-15T08:20:23;3.90;;;1.58;;
44564;SDS011;30275;51.822;-0.326;2023-05-15T08:22:52;4.20;;;1.23;;
44564;SDS011;30275;51.822;-0.326;2023-05-15T08:25:17;4.43;;;1.40;;
44564;SDS011;30275;51.822;-0.326;2023-05-15T08:27:43;6.45;;;1.50;;
44564;SDS011;30275;51.822;-0.326;2023-05-15T08:30:09;3.20;;;1.77;;
44564;SDS011;30275;51.822;-0.326;2023-05-15T08:32:34;4.25;;;1.60;;
44564;SDS011;30275;51.822;-0.326;2023-05-15T08:35:00;5.20;;;1.50;;
44564;SDS011;30275;51.822;-0.326;2023-05-15T08:37:25;6.35;;;1.85;;
44564;SDS011;30275;51.822;-0.326;2023-05-15T08:39:51;5.55;;;1.33;;
44564;SDS011;30275;51.822;-0.326;2023-05-15T08:42:20;5.13;;;1.48;;
44564;SDS011;30275;51.822;-0.326;2023-05-15T08:44:49;5.80;;;1.40;;
44564;SDS011;30275;51.822;-0.326;2023-05-15T08:47:14;4.95;;;1.30;;
44564;SDS011;30275;51.822;-0.326;2023-05-15T08:52:17;9.20;;;1.58;;
44564;SDS011;30275;51.822;-0.326;2023-05-15T08:54:43;6.05;;;1.83;;
44564;SDS011;30275;51.822;-0.326;2023-05-15T08:57:09;5.78;;;1.83;;
44564;SDS011;30275;51.822;-0.326;2023-05-15T08:59:35;5.95;;;1.70;;
44564;SDS011;30275;51.822;-0.326;2023-05-15T09:02:02;4.00;;;1.60;;
44564;SDS011;30275;51.822;-0.326;2023-05-15T09:04:27;4.13;;;1.58;;
44564;SDS011;30275;51.822;-0.326;2023-05-15T09:06:53;6.25;;;1.55;;
44564;SDS011;30275;51.822;-0.326;2023-05-15T09:09:20;4.90;;;1.42;;
44564;SDS011;30275;51.822;-0.326;2023-05-15T09:11:47;4.57;;;1.55;;
44564;SDS011;30275;51.822;-0.326;2023-05-15T09:14:14;5.85;;;1.75;;
44564;SDS011;30275;51.822;-0.326;2023-05-15T09:16:40;3.47;;;1.50;;
44564;SDS011;30275;51.822;-0.326;2023-05-15T09:19:05;3.10;;;1.30;;
44564;SDS011;30275;51.822;-0.326;2023-05-15T09:21:31;6.43;;;1.48;;
44564;SDS011;30275;51.822;-0.326;2023-05-15T09:26:59;2.17;;;1.20;;
44564;SDS011;30275;51.822;-0.326;2023-05-15T09:29:29;5.75;;;1.40;;
44564;SDS011;30275;51.822;-0.326;2023-05-15T09:31:56;4.18;;;1.52;;
44564;SDS011;30275;51.822;-0.326;2023-05-15T09:34:29;5.50;;;1.67;;
44564;SDS011;30275;51.822;-0.326;2023-05-15T09:36:56;4.70;;;1.30;;
44564;SDS011;30275;51.822;-0.326;2023-05-15T09:39:22;3.17;;;1.52;;
44564;SDS011;30275;51.822;-0.326;2023-05-15T09:41:47;4.28;;;1.52;;
44564;SDS011;30275;51.822;-0.326;2023-05-15T09:44:16;4.03;;;1.40;;
44564;SDS011;30275;51.822;-0.326;2023-05-15T09:46:51;3.45;;;1.73;;
44564;SDS011;30275;51.822;-0.326;2023-05-15T09:49:17;2.00;;;1.30;;
44564;SDS011;30275;51.822;-0.326;2023-05-15T09:51:43;4.10;;;2.35;;
44564;SDS011;30275;51.822;-0.326;2023-05-15T09:54:18;4.80;;;1.80;;
44564;SDS011;30275;51.822;-0.326;2023-05-15T09:56:47;7.65;;;2.47;;
44564;SDS011;30275;51.822;-0.326;2023-05-15T09:59:13;5.30;;;1.80;;
44564;SDS011;30275;51.822;-0.326;2023-05-15T10:01:49;4.05;;;1.77;;
44564;SDS011;30275;51.822;-0.326;2023-05-15T10:04:16;3.00;;;1.50;;
44564;SDS011;30275;51.822;-0.326;2023-05-15T10:06:43;2.20;;;1.27;;
44564;SDS011;30275;51.822;-0.326;2023-05-15T10:09:10;4.95;;;1.65;;
44564;SDS011;30275;51.822;-0.326;2023-05-15T10:11:38;3.60;;;1.48;;
44564;SDS011;30275;51.822;-0.326;2023-05-15T10:14:07;3.38;;;1.73;;
44564;SDS011;30275;51.822;-0.326;2023-05-15T10:16:35;5.22;;;1.98;;
44564;SDS011;30275;51.822;-0.326;2023-05-15T10:19:05;2.40;;;1.33;;
44564;SDS011;30275;51.822;-0.326;2023-05-15T10:21:34;4.03;;;1.20;;
44564;SDS011;30275;51.822;-0.326;2023-05-15T10:24:01;2.38;;;1.17;;
44564;SDS011;30275;51.822;-0.326;2023-05-15T10:29:03;3.13;;;1.38;;
44564;SDS011;30275;51.822;-0.326;2023-05-15T10:31:33;1.95;;;1.23;;
44564;SDS011;30275;51.822;-0.326;2023-05-15T10:34:02;3.20;;;2.03;;
44564;SDS011;30275;51.822;-0.326;2023-05-15T10:36:29;5.47;;;1.40;;
44564;SDS011;30275;51.822;-0.326;2023-05-15T10:38:56;2.45;;;1.35;;
44564;SDS011;30275;51.822;-0.326;2023-05-15T10:41:26;2.75;;;1.25;;
44564;SDS011;30275;51.822;-0.326;2023-05-15T10:43:54;4.10;;;1.50;;
44564;SDS011;30275;51.822;-0.326;2023-05-15T10:46:23;2.42;;;1.13;;
44564;SDS011;30275;51.822;-0.326;2023-05-15T10:48:49;4.97;;;1.10;;
44564;SDS011;30275;51.822;-0.326;2023-05-15T10:51:16;3.88;;;1.25;;
44564;SDS011;30275;51.822;-0.326;2023-05-15T10:53:43;3.17;;;1.20;;
44564;SDS011;30275;51.822;-0.326;2023-05-15T10:56:15;3.58;;;1.10;;
44564;SDS011;30275;51.822;-0.326;2023-05-15T10:58:45;6.03;;;1.55;;
44564;SDS011;30275;51.822;-0.326;2023-05-15T11:04:05;4.35;;;1.45;;
44564;SDS011;30275;51.822;-0.326;2023-05-15T11:06:41;2.88;;;1.50;;
44564;SDS011;30275;51.822;-0.326;2023-05-15T11:11:52;4.53;;;1.27;;
44564;SDS011;30275;51.822;-0.326;2023-05-15T11:14:22;5.30;;;1.55;;
44564;SDS011;30275;51.822;-0.326;2023-05-15T11:21:55;5.65;;;1.40;;
44564;SDS011;30275;51.822;-0.326;2023-05-15T11:24:31;2.10;;;1.02;;
44564;SDS011;30275;51.822;-0.326;2023-05-15T11:27:11;2.53;;;1.23;;
44564;SDS011;30275;51.822;-0.326;2023-05-15T11:32:31;2.72;;;1.23;;
44564;SDS011;30275;51.822;-0.326;2023-05-15T11:37:46;5.63;;;1.20;;
44564;SDS011;30275;51.822;-0.326;2023-05-15T11:40:17;5.30;;;2.20;;
44564;SDS011;30275;51.822;-0.326;2023-05-15T11:45:45;4.75;;;1.30;;
44564;SDS011;30275;51.822;-0.326;2023-05-15T11:48:13;2.92;;;1.30;;
44564;SDS011;30275;51.822;-0.326;2023-05-15T11:50:41;4.28;;;1.88;;
44564;SDS011;30275;51.822;-0.326;2023-05-15T11:53:08;4.32;;;1.52;;
44564;SDS011;30275;51.822;-0.326;2023-05-15T11:55:38;3.50;;;1.30;;
44564;SDS011;30275;51.822;-0.326;2023-05-15T11:58:09;1.63;;;1.13;;
44564;SDS011;30275;51.822;-0.326;2023-05-15T12:00:46;2.42;;;1.52;;
44564;SDS011;30275;51.822;-0.326;2023-05-15T12:03:16;3.03;;;1.50;;
44564;SDS011;30275;51.822;-0.326;2023-05-15T12:05:48;2.08;;;1.17;;
44564;SDS011;30275;51.822;-0.326;2023-05-15T12:08:15;5.10;;;1.85;;
44564;SDS011;30275;51.822;-0.326;2023-05-15T12:10:44;2.90;;;1.48;;
44564;SDS011;30275;51.822;-0.326;2023-05-15T12:13:10;3.63;;;1.42;;
44564;SDS011;30275;51.822;-0.326;2023-05-15T12:15:37;2.90;;;1.05;;
44564;SDS011;30275;51.822;-0.326;2023-05-15T12:18:04;2.90;;;1.17;;
44564;SDS011;30275;51.822;-0.326;2023-05-15T12:20:32;3.15;;;1.40;;
44564;SDS011;30275;51.822;-0.326;2023-05-15T12:22:59;4.88;;;1.45;;
44564;SDS011;30275;51.822;-0.326;2023-05-15T12:25:25;7.05;;;1.90;;
44564;SDS011;30275;51.822;-0.326;2023-05-15T12:27:51;4.78;;;1.58;;
44564;SDS011;30275;51.822;-0.326;2023-05-15T12:30:17;3.38;;;1.50;;
44564;SDS011;30275;51.822;-0.326;2023-05-15T12:32:43;3.15;;;1.30;;
44564;SDS011;30275;51.822;-0.326;2023-05-15T12:35:09;3.75;;;1.40;;
44564;SDS011;30275;51.822;-0.326;2023-05-15T12:37:36;3.63;;;1.38;;
44564;SDS011;30275;51.822;-0.326;2023-05-15T12:40:02;4.43;;;1.90;;
44564;SDS011;30275;51.822;-0.326;2023-05-15T12:42:44;3.60;;;1.40;;
44564;SDS011;30275;51.822;-0.326;2023-05-15T12:45:13;4.05;;;1.52;;
44564;SDS011;30275;51.822;-0.326;2023-05-15T12:47:40;4.38;;;1.45;;
44564;SDS011;30275;51.822;-0.326;2023-05-15T12:50:17;4.53;;;1.40;;
44564;SDS011;30275;51.822;-0.326;2023-05-15T12:55:17;3.90;;;1.20;;
44564;SDS011;30275;51.822;-0.326;2023-05-15T12:57:46;2.58;;;1.48;;
44564;SDS011;30275;51.822;-0.326;2023-05-15T13:00:12;5.22;;;1.65;;
44564;SDS011;30275;51.822;-0.326;2023-05-15T13:02:41;3.38;;;1.17;;
44564;SDS011;30275;51.822;-0.326;2023-05-15T13:05:10;5.20;;;1.92;;
44564;SDS011;30275;51.822;-0.326;2023-05-15T13:07:37;1.60;;;1.17;;
44564;SDS011;30275;51.822;-0.326;2023-05-15T13:10:05;4.25;;;1.60;;
44564;SDS011;30275;51.822;-0.326;2023-05-15T13:12:36;2.40;;;1.42;;
44564;SDS011;30275;51.822;-0.326;2023-05-15T13:15:20;3.17;;;1.60;;
44564;SDS011;30275;51.822;-0.326;2023-05-15T13:20:45;6.28;;;1.42;;
44564;SDS011;30275;51.822;-0.326;2023-05-15T13:23:18;3.97;;;1.50;;
44564;SDS011;30275;51.822;-0.326;2023-05-15T13:25:45;3.00;;;1.30;;
44564;SDS011;30275;51.822;-0.326;2023-05-15T13:28:11;3.60;;;1.40;;
44564;SDS011;30275;51.822;-0.326;2023-05-15T13:30:37;3.13;;;1.42;;
44564;SDS011;30275;51.822;-0.326;2023-05-15T13:33:07;3.50;;;1.40;;
44564;SDS011;30275;51.822;-0.326;2023-05-15T13:35:34;3.80;;;1.55;;
44564;SDS011;30275;51.822;-0.326;2023-05-15T13:38:00;2.22;;;1.20;;
44564;SDS011;30275;51.822;-0.326;2023-05-15T13:40:26;3.05;;;1.30;;
44564;SDS011;30275;51.822;-0.326;2023-05-15T13:42:51;5.00;;;1.50;;
44564;SDS011;30275;51.822;-0.326;2023-05-15T13:45:17;4.30;;;1.42;;
44564;SDS011;30275;51.822;-0.326;2023-05-15T13:47:43;4.75;;;1.30;;
44564;SDS011;30275;51.822;-0.326;2023-05-15T13:50:10;3.95;;;1.60;;
44564;SDS011;30275;51.822;-0.326;2023-05-15T13:52:37;5.00;;;2.17;;
44564;SDS011;30275;51.822;-0.326;2023-05-15T13:55:03;4.68;;;1.65;;
44564;SDS011;30275;51.822;-0.326;2023-05-15T13:57:29;4.13;;;1.73;;
44564;SDS011;30275;51.822;-0.326;2023-05-15T13:59:56;3.65;;;1.70;;
44564;SDS011;30275;51.822;-0.326;2023-05-15T14:02:21;5.10;;;1.40;;
44564;SDS011;30275;51.822;-0.326;2023-05-15T14:04:51;3.00;;;1.50;;
44564;SDS011;30275;51.822;-0.326;2023-05-15T14:07:17;3.00;;;1.70;;
44564;SDS011;30275;51.822;-0.326;2023-05-15T14:09:45;3.80;;;1.40;;
44564;SDS011;30275;51.822;-0.326;2023-05-15T14:12:11;2.70;;;1.35;;
44564;SDS011;30275;51.822;-0.326;2023-05-15T14:14:36;3.65;;;1.20;;
44564;SDS011;30275;51.822;-0.326;2023-05-15T14:17:02;3.25;;;1.10;;
44564;SDS011;30275;51.822;-0.326;2023-05-15T14:19:28;4.95;;;1.45;;
44564;SDS011;30275;51.822;-0.326;2023-05-15T14:21:54;3.88;;;1.50;;
44564;SDS011;30275;51.822;-0.326;2023-05-15T14:24:20;4.65;;;1.75;;
44564;SDS011;30275;51.822;-0.326;2023-05-15T14:26:45;3.65;;;1.95;;
44564;SDS011;30275;51.822;-0.326;2023-05-15T14:29:11;3.05;;;1.40;;
44564;SDS011;30275;51.822;-0.326;2023-05-15T14:31:36;3.22;;;1.33;;
44564;SDS011;30275;51.822;-0.326;2023-05-15T14:34:02;4.30;;;1.70;;
44564;SDS011;30275;51.822;-0.326;2023-05-15T14:36:29;2.65;;;1.40;;
44564;SDS011;30275;51.822;-0.326;2023-05-15T14:38:55;4.10;;;1.20;;
44564;SDS011;30275;51.822;-0.326;2023-05-15T14:41:20;4.10;;;1.38;;
44564;SDS011;30275;51.822;-0.326;2023-05-15T14:43:46;2.60;;;1.25;;
44564;SDS011;30275;51.822;-0.326;2023-05-15T14:46:11;4.82;;;2.25;;
44564;SDS011;30275;51.822;-0.326;2023-05-15T14:48:37;4.90;;;1.70;;
44564;SDS011;30275;51.822;-0.326;2023-05-15T14:51:02;3.85;;;1.50;;
44564;SDS011;30275;51.822;-0.326;2023-05-15T14:53:28;4.68;;;1.80;;
44564;SDS011;30275;51.822;-0.326;2023-05-15T14:55:54;8.38;;;1.50;;
44564;SDS011;30275;51.822;-0.326;2023-05-15T14:58:20;2.20;;;1.15;;
44564;SDS011;30275;51.822;-0.326;2023-05-15T15:00:45;3.97;;;1.00;;
44564;SDS011;30275;51.822;-0.326;2023-05-15T15:03:12;4.20;;;1.50;;
44564;SDS011;30275;51.822;-0.326;2023-05-15T15:05:37;2.45;;;1.05;;
44564;SDS011;30275;51.822;-0.326;2023-05-15T15:08:07;1.90;;;1.10;;
44564;SDS011;30275;51.822;-0.326;2023-05-15T15:10:35;2.50;;;1.30;;
44564;SDS011;30275;51.822;-0.326;2023-05-15T15:13:02;2.28;;;1.23;;
44564;SDS011;30275;51.822;-0.326;2023-05-15T15:15:29;3.75;;;1.60;;
44564;SDS011;30275;51.822;-0.326;2023-05-15T15:17:56;4.45;;;1.60;;
44564;SDS011;30275;51.822;-0.326;2023-05-15T15:20:22;4.97;;;1.25;;